createdAt,value
2022-09-10T00:01:51.944Z,17.30
2022-09-10T00:04:06.495Z,16.10
2022-09-10T00:06:20.739Z,16.80
2022-09-10T00:08:35.585Z,16.90
2022-09-10T00:10:51.740Z,15.40
2022-09-10T00:13:05.621Z,15.10
2022-09-10T00:15:21.493Z,15.50
2022-09-10T00:17:35.359Z,16.70
2022-09-10T00:19:48.844Z,16.40
2022-09-10T00:22:02.519Z,16.00
2022-09-10T00:24:16.480Z,15.90
2022-09-10T00:26:31.664Z,15.70
2022-09-10T00:28:45.770Z,15.40
2022-09-10T00:31:00.151Z,18.50
2022-09-10T00:33:14.171Z,16.50
2022-09-10T00:35:27.881Z,15.80
2022-09-10T00:37:42.038Z,19.70
2022-09-10T00:39:56.820Z,17.50
2022-09-10T00:42:13.422Z,16.10
2022-09-10T00:44:59.230Z,15.80
2022-09-10T00:47:18.837Z,15.40
2022-09-10T00:49:40.292Z,17.90
2022-09-10T00:51:56.433Z,16.40
2022-09-10T00:54:11.202Z,16.80
2022-09-10T00:56:25.229Z,15.30
2022-09-10T00:58:39.257Z,15.80
2022-09-10T01:00:55.698Z,16.70
2022-09-10T01:03:12.583Z,15.90
2022-09-10T01:05:27.303Z,16.40
2022-09-10T01:07:41.590Z,17.00
2022-09-10T01:09:55.405Z,17.20
2022-09-10T01:12:25.119Z,17.30
2022-09-10T01:14:56.007Z,16.10
2022-09-10T01:17:22.108Z,17.80
2022-09-10T01:20:02.351Z,17.70
2022-09-10T01:22:27.499Z,16.20
2022-09-10T01:24:59.969Z,16.40
2022-09-10T01:27:32.398Z,17.10
2022-09-10T01:29:56.515Z,17.60
2022-09-10T01:32:16.840Z,17.50
2022-09-10T01:34:41.641Z,17.30
2022-09-10T01:36:57.217Z,18.10
2022-09-10T01:39:11.525Z,18.30
2022-09-10T01:41:27.503Z,18.50
2022-09-10T01:43:43.257Z,17.20
2022-09-10T01:46:12.515Z,17.40
2022-09-10T01:49:02.987Z,18.00
2022-09-10T01:51:27.061Z,18.40
2022-09-10T01:53:54.342Z,16.70
2022-09-10T01:56:17.146Z,18.70
2022-09-10T01:58:38.380Z,18.40
2022-09-10T02:01:18.840Z,17.40
2022-09-10T02:03:33.890Z,18.10
2022-09-10T02:05:51.087Z,17.00
2022-09-10T02:08:08.918Z,18.80
2022-09-10T02:10:23.176Z,19.30
2022-09-10T02:12:38.161Z,17.50
2022-09-10T02:15:12.964Z,18.10
2022-09-10T02:17:44.075Z,17.60
2022-09-10T02:19:59.672Z,17.70
2022-09-10T02:22:14.336Z,18.70
2022-09-10T02:24:28.649Z,18.60
2022-09-10T02:26:44.646Z,26.80
2022-09-10T02:28:58.999Z,18.50
2022-09-10T02:31:13.069Z,18.80
2022-09-10T02:33:26.983Z,18.30
2022-09-10T02:35:40.623Z,21.70
2022-09-10T02:37:54.757Z,23.80
2022-09-10T02:40:09.422Z,23.50
2022-09-10T02:42:23.684Z,23.90
2022-09-10T02:44:37.570Z,21.50
2022-09-10T02:46:53.170Z,21.20
2022-09-10T02:49:06.986Z,20.10
2022-09-10T02:51:22.866Z,20.30
2022-09-10T02:53:37.552Z,20.10
2022-09-10T02:55:54.482Z,21.00
2022-09-10T02:58:08.475Z,21.20
2022-09-10T03:00:23.275Z,21.90
2022-09-10T03:02:37.570Z,20.50
2022-09-10T03:04:51.417Z,22.10
2022-09-10T03:07:05.283Z,24.10
2022-09-10T03:09:21.303Z,21.80
2022-09-10T03:11:36.273Z,24.90
2022-09-10T03:13:50.185Z,22.60
2022-09-10T03:16:05.244Z,23.50
2022-09-10T03:18:19.772Z,22.40
2022-09-10T03:20:33.601Z,23.00
2022-09-10T03:22:48.800Z,22.70
2022-09-10T03:25:02.839Z,23.60
2022-09-10T03:27:17.132Z,25.30
2022-09-10T03:29:31.582Z,22.70
2022-09-10T03:31:47.780Z,26.80
2022-09-10T03:34:02.288Z,24.20
2022-09-10T03:36:16.802Z,24.50
2022-09-10T03:38:30.623Z,24.40
2022-09-10T03:40:44.851Z,24.10
2022-09-10T03:42:58.875Z,24.00
2022-09-10T03:45:15.363Z,24.90
2022-09-10T03:47:30.379Z,23.10
2022-09-10T03:49:48.560Z,26.10
2022-09-10T03:52:02.744Z,26.30
2022-09-10T03:54:18.708Z,24.80
2022-09-10T03:56:33.042Z,27.80
2022-09-10T03:58:46.598Z,30.00
2022-09-10T04:01:00.294Z,28.50
2022-09-10T04:03:18.509Z,26.00
2022-09-10T04:05:32.500Z,25.20
2022-09-10T04:07:46.653Z,26.10
2022-09-10T04:10:00.498Z,22.90
2022-09-10T04:12:14.723Z,22.60
2022-09-10T04:14:28.551Z,23.60
2022-09-10T04:16:43.022Z,26.60
2022-09-10T04:19:00.279Z,23.90
2022-09-10T04:21:15.938Z,24.50
2022-09-10T04:23:30.789Z,24.10
2022-09-10T04:25:45.048Z,23.30
2022-09-10T04:27:58.824Z,29.40
2022-09-10T04:30:14.238Z,25.00
2022-09-10T04:32:28.417Z,24.90
2022-09-10T04:34:42.446Z,25.60
2022-09-10T04:36:56.836Z,25.90
2022-09-10T04:39:10.546Z,25.80
2022-09-10T04:41:24.469Z,26.00
2022-09-10T04:43:38.800Z,23.90
2022-09-10T04:45:52.873Z,25.10
2022-09-10T04:48:07.337Z,26.80
2022-09-10T04:50:23.610Z,23.80
2022-09-10T04:52:55.374Z,27.80
2022-09-10T04:55:09.601Z,24.60
2022-09-10T04:57:23.470Z,27.00
2022-09-10T04:59:39.249Z,24.50
2022-09-10T05:01:53.977Z,23.60
2022-09-10T05:04:09.385Z,21.50
2022-09-10T05:06:24.636Z,21.80
2022-09-10T05:08:38.970Z,22.40
2022-09-10T05:10:53.162Z,23.60
2022-09-10T05:13:06.807Z,21.80
2022-09-10T05:15:20.679Z,22.60
2022-09-10T05:17:34.668Z,25.70
2022-09-10T05:19:48.356Z,25.20
2022-09-10T05:22:03.334Z,22.30
2022-09-10T05:24:19.103Z,22.20
2022-09-10T05:26:32.744Z,23.10
2022-09-10T05:28:46.318Z,26.30
2022-09-10T05:31:02.182Z,21.00
2022-09-10T05:33:16.168Z,20.90
2022-09-10T05:35:30.354Z,21.50
2022-09-10T05:37:44.882Z,26.80
2022-09-10T05:39:58.859Z,24.30
2022-09-10T05:42:13.027Z,18.90
2022-09-10T05:44:26.594Z,23.30
2022-09-10T05:46:40.398Z,19.30
2022-09-10T05:49:00.987Z,22.90
2022-09-10T05:51:14.987Z,27.80
2022-09-10T05:53:29.877Z,22.30
2022-09-10T05:55:45.203Z,22.60
2022-09-10T05:57:59.733Z,21.60
2022-09-10T06:00:16.561Z,21.80
2022-09-10T06:02:40.948Z,23.10
2022-09-10T06:05:06.162Z,20.20
2022-09-10T06:07:20.256Z,17.90
2022-09-10T06:09:33.950Z,25.30
2022-09-10T06:12:04.524Z,18.40
2022-09-10T06:14:18.624Z,19.40
2022-09-10T06:16:32.507Z,19.40
2022-09-10T06:18:47.901Z,17.90
2022-09-10T06:21:11.560Z,17.80
2022-09-10T06:23:25.477Z,16.30
2022-09-10T06:25:40.014Z,17.00
2022-09-10T06:27:54.012Z,18.10
2022-09-10T06:30:07.922Z,17.80
2022-09-10T06:32:25.235Z,21.00
2022-09-10T06:34:39.183Z,17.80
2022-09-10T06:36:55.996Z,16.00
2022-09-10T06:39:11.179Z,15.00
2022-09-10T06:41:49.430Z,15.40
2022-09-10T06:44:22.636Z,15.70
2022-09-10T06:49:20.108Z,15.20
2022-09-10T06:51:35.183Z,20.80
2022-09-10T06:53:51.213Z,13.90
2022-09-10T06:56:07.153Z,14.00
2022-09-10T06:58:21.624Z,12.90
2022-09-10T07:00:35.474Z,14.00
2022-09-10T07:02:51.871Z,14.40
2022-09-10T07:05:05.574Z,14.60
2022-09-10T07:07:21.399Z,14.90
2022-09-10T07:09:36.355Z,10.30
2022-09-10T07:11:49.939Z,13.30
2022-09-10T07:14:04.208Z,9.90
2022-09-10T07:16:23.973Z,12.90
2022-09-10T07:18:39.792Z,9.10
2022-09-10T07:20:54.456Z,9.10
2022-09-10T07:23:11.092Z,14.90
2022-09-10T07:25:28.130Z,12.70
2022-09-10T07:27:53.153Z,11.20
2022-09-10T07:30:06.478Z,12.10
2022-09-10T07:32:19.916Z,11.00
2022-09-10T07:34:35.829Z,8.70
2022-09-10T07:36:52.506Z,8.70
2022-09-10T07:39:07.056Z,9.70
2022-09-10T07:41:23.459Z,9.60
2022-09-10T07:43:37.080Z,8.00
2022-09-10T07:45:50.918Z,7.40
2022-09-10T07:48:04.155Z,8.80
2022-09-10T07:50:21.515Z,9.50
2022-09-10T07:52:38.369Z,9.50
2022-09-10T07:54:51.645Z,5.10
2022-09-10T07:57:05.926Z,11.90
2022-09-10T07:59:20.380Z,7.60
2022-09-10T08:01:37.178Z,9.60
2022-09-10T08:03:51.367Z,6.00
2022-09-10T08:06:06.930Z,6.10
2022-09-10T08:08:21.218Z,7.10
2022-09-10T08:10:34.534Z,7.50
2022-09-10T08:12:48.402Z,7.60
2022-09-10T08:15:02.170Z,9.10
2022-09-10T08:17:15.594Z,7.40
2022-09-10T08:19:31.025Z,9.50
2022-09-10T08:21:45.722Z,8.10
2022-09-10T08:24:00.497Z,9.20
2022-09-10T08:26:14.785Z,8.40
2022-09-10T08:28:30.797Z,8.30
2022-09-10T08:30:44.136Z,10.80
2022-09-10T08:32:57.466Z,8.30
2022-09-10T08:35:11.412Z,6.40
2022-09-10T08:37:24.985Z,9.70
2022-09-10T08:39:38.955Z,8.00
2022-09-10T08:41:59.599Z,7.00
2022-09-10T08:44:19.317Z,9.40
2022-09-10T08:46:37.446Z,8.00
2022-09-10T08:48:56.238Z,9.40
2022-09-10T08:51:17.607Z,11.50
2022-09-10T08:53:36.192Z,14.30
2022-09-10T08:55:49.527Z,7.70
2022-09-10T08:58:07.858Z,6.40
2022-09-10T09:00:25.340Z,7.20
2022-09-10T09:02:49.746Z,7.20
2022-09-10T09:05:09.204Z,11.30
2022-09-10T09:07:25.409Z,9.30
2022-09-10T09:09:42.104Z,9.90
2022-09-10T09:12:01.772Z,7.00
2022-09-10T09:14:38.758Z,15.10
2022-09-10T09:17:07.594Z,11.00
2022-09-10T09:19:30.794Z,14.40
2022-09-10T09:21:54.133Z,8.50
2022-09-10T09:24:19.101Z,10.10
2022-09-10T09:26:40.488Z,9.80
2022-09-10T09:29:00.632Z,8.60
2022-09-10T09:31:18.967Z,10.90
2022-09-10T09:33:37.033Z,9.40
2022-09-10T09:35:55.162Z,13.50
2022-09-10T09:38:20.004Z,9.30
2022-09-10T09:40:40.068Z,12.40
2022-09-10T09:42:57.340Z,10.40
2022-09-10T09:45:20.399Z,9.00
2022-09-10T09:49:45.104Z,18.20
2022-09-10T09:51:59.805Z,8.30
2022-09-10T09:54:56.923Z,12.80
2022-09-10T09:56:55.844Z,8.60
2022-09-10T09:59:28.008Z,9.60
2022-09-10T10:01:45.714Z,9.60
2022-09-10T10:04:05.168Z,11.00
2022-09-10T10:06:20.850Z,12.40
2022-09-10T10:08:37.382Z,9.20
2022-09-10T10:10:55.146Z,9.80
2022-09-10T10:13:08.538Z,10.80
2022-09-10T10:15:42.355Z,10.90
2022-09-10T10:17:56.243Z,13.00
2022-09-10T10:20:15.471Z,10.00
2022-09-10T10:22:32.317Z,10.80
2022-09-10T10:24:46.376Z,12.50
2022-09-10T10:26:59.840Z,10.50
2022-09-10T10:29:21.956Z,10.70
2022-09-10T10:31:45.248Z,8.60
2022-09-10T10:34:09.426Z,10.60
2022-09-10T10:36:28.979Z,11.70
2022-09-10T10:38:45.352Z,15.50
2022-09-10T10:41:10.814Z,10.50
2022-09-10T10:43:40.532Z,11.70
2022-09-10T10:46:05.720Z,12.30
2022-09-10T10:48:31.601Z,11.00
2022-09-10T10:50:54.915Z,12.40
2022-09-10T10:53:40.540Z,9.50
2022-09-10T10:56:02.323Z,12.80
2022-09-10T10:58:38.957Z,10.60
2022-09-10T11:00:56.145Z,9.80
2022-09-10T11:03:19.048Z,11.70
2022-09-10T11:05:35.915Z,12.20
2022-09-10T11:07:50.314Z,10.60
2022-09-10T11:10:08.093Z,11.20
2022-09-10T11:12:29.547Z,13.10
2022-09-10T11:14:49.893Z,11.10
2022-09-10T11:17:08.338Z,11.70
2022-09-10T11:19:28.156Z,9.60
2022-09-10T11:21:47.124Z,12.60
2022-09-10T11:24:05.818Z,13.10
2022-09-10T11:26:24.038Z,9.80
2022-09-10T11:28:40.101Z,11.30
2022-09-10T11:30:58.998Z,13.80
2022-09-10T11:33:20.106Z,12.30
2022-09-10T11:35:38.098Z,11.00
2022-09-10T11:38:00.128Z,11.80
2022-09-10T11:40:21.915Z,10.20
2022-09-10T11:42:42.238Z,14.10
2022-09-10T11:45:05.970Z,9.40
2022-09-10T11:47:25.679Z,13.50
2022-09-10T11:49:52.332Z,14.70
2022-09-10T11:52:06.147Z,14.10
2022-09-10T11:54:22.291Z,13.40
2022-09-10T11:56:47.390Z,12.20
2022-09-10T11:59:17.609Z,14.30
2022-09-10T12:01:50.611Z,12.00
2022-09-10T12:04:20.056Z,13.00
2022-09-10T12:06:40.722Z,17.20
2022-09-10T12:09:06.821Z,14.10
2022-09-10T12:11:30.809Z,13.80
2022-09-10T12:13:46.809Z,16.10
2022-09-10T12:16:04.030Z,13.90
2022-09-10T12:18:24.591Z,13.30
2022-09-10T12:20:43.383Z,13.70
2022-09-10T12:23:00.213Z,12.80
2022-09-10T12:25:30.462Z,15.30
2022-09-10T12:27:54.781Z,15.30
2022-09-10T12:30:43.725Z,13.20
2022-09-10T12:32:58.990Z,15.30
2022-09-10T12:35:40.569Z,19.60
2022-09-10T12:37:54.229Z,18.60
2022-09-10T12:40:39.707Z,14.70
2022-09-10T12:42:53.173Z,17.40
2022-09-10T12:45:06.561Z,14.90
2022-09-10T12:47:53.868Z,20.60
2022-09-10T12:50:10.211Z,15.50
2022-09-10T12:52:32.868Z,15.60
2022-09-10T12:54:55.500Z,15.50
2022-09-10T12:57:35.404Z,16.80
2022-09-10T13:00:15.092Z,18.10
2022-09-10T13:02:36.181Z,18.60
2022-09-10T13:04:56.691Z,17.80
2022-09-10T13:07:27.565Z,17.30
2022-09-10T13:09:43.397Z,16.20
2022-09-10T13:11:58.770Z,19.60
2022-09-10T13:14:20.394Z,17.40
2022-09-10T13:16:46.392Z,16.00
2022-09-10T13:19:20.739Z,16.60
2022-09-10T13:21:58.757Z,18.60
2022-09-10T13:24:49.923Z,16.50
2022-09-10T13:27:22.047Z,17.60
2022-09-10T13:29:38.493Z,20.10
2022-09-10T13:31:59.082Z,15.90
2022-09-10T13:34:32.612Z,16.60
2022-09-10T13:36:57.211Z,18.20
2022-09-10T13:39:49.573Z,17.40
2022-09-10T13:42:14.866Z,17.80
2022-09-10T13:44:48.368Z,18.60
2022-09-10T13:47:07.701Z,18.00
2022-09-10T13:49:26.371Z,16.80
2022-09-10T13:51:45.391Z,17.60
2022-09-10T13:54:00.929Z,16.90
2022-09-10T13:56:20.045Z,17.60
2022-09-10T13:58:38.537Z,18.20
2022-09-10T14:00:59.096Z,17.40
2022-09-10T14:03:24.327Z,16.60
2022-09-10T14:05:45.236Z,19.80
2022-09-10T14:08:01.382Z,16.60
2022-09-10T14:10:15.169Z,23.60
2022-09-10T14:12:31.144Z,19.70
2022-09-10T14:14:46.996Z,18.30
2022-09-10T14:17:03.154Z,17.90
2022-09-10T14:19:23.500Z,18.50
2022-09-10T14:21:37.526Z,17.40
2022-09-10T14:23:55.291Z,21.20
2022-09-10T14:26:24.504Z,19.10
2022-09-10T14:28:38.681Z,18.50
2022-09-10T14:30:54.081Z,20.80
2022-09-10T14:33:32.563Z,19.50
2022-09-10T14:35:48.048Z,19.40
2022-09-10T14:38:05.421Z,18.20
2022-09-10T14:40:25.812Z,20.80
2022-09-10T14:42:40.544Z,20.10
2022-09-10T14:44:53.904Z,18.00
2022-09-10T14:47:26.271Z,19.20
2022-09-10T14:49:42.623Z,19.00
2022-09-10T14:51:56.024Z,18.80
2022-09-10T14:54:09.368Z,20.70
2022-09-10T14:56:34.656Z,18.40
2022-09-10T14:58:47.995Z,18.30
2022-09-10T15:01:01.667Z,18.30
2022-09-10T15:03:20.161Z,21.20
2022-09-10T15:05:33.897Z,20.00
2022-09-10T15:07:47.217Z,19.70
2022-09-10T15:10:00.421Z,19.00
2022-09-10T15:12:16.601Z,19.20
2022-09-10T15:14:30.733Z,17.10
2022-09-10T15:16:44.203Z,17.90
2022-09-10T15:18:57.649Z,19.40
2022-09-10T15:21:13.649Z,21.00
2022-09-10T15:23:26.912Z,21.10
2022-09-10T15:25:44.690Z,20.30
2022-09-10T15:27:57.855Z,21.20
2022-09-10T15:30:12.604Z,21.00
2022-09-10T15:32:25.829Z,21.10
2022-09-10T15:34:39.009Z,18.70
2022-09-10T15:36:54.242Z,20.10
2022-09-10T15:39:08.162Z,17.90
2022-09-10T15:41:21.678Z,18.80
2022-09-10T15:43:39.423Z,19.40
2022-09-10T15:45:53.068Z,18.00
2022-09-10T15:48:07.763Z,21.10
2022-09-10T15:50:21.182Z,21.60
2022-09-10T15:52:34.613Z,18.70
2022-09-10T15:54:48.061Z,19.00
2022-09-10T15:57:02.382Z,21.90
2022-09-10T15:59:17.703Z,19.40
2022-09-10T16:01:32.155Z,23.50
2022-09-10T16:03:47.829Z,22.30
2022-09-10T16:06:05.456Z,21.50
2022-09-10T16:08:18.745Z,21.90
2022-09-10T16:10:32.205Z,21.50
2022-09-10T16:12:45.425Z,19.90
2022-09-10T16:14:58.787Z,21.90
2022-09-10T16:17:12.496Z,23.90
2022-09-10T16:19:25.816Z,24.90
2022-09-10T16:21:41.021Z,31.90
2022-09-10T16:23:55.528Z,22.30
2022-09-10T16:26:09.226Z,24.70
2022-09-10T16:28:22.725Z,23.30
2022-09-10T16:30:36.329Z,23.50
2022-09-10T16:32:49.830Z,21.80
2022-09-10T16:35:05.353Z,24.00
2022-09-10T16:37:18.483Z,24.10
2022-09-10T16:39:32.475Z,22.30
2022-09-10T16:41:46.856Z,24.30
2022-09-10T16:44:01.741Z,25.00
2022-09-10T16:46:16.150Z,28.00
2022-09-10T16:48:29.451Z,23.40
2022-09-10T16:50:42.769Z,25.60
2022-09-10T16:52:56.717Z,25.40
2022-09-10T16:55:10.554Z,24.90
2022-09-10T16:57:23.825Z,27.90
2022-09-10T16:59:37.776Z,27.20
2022-09-10T17:01:52.855Z,28.40
2022-09-10T17:04:08.034Z,27.40
2022-09-10T17:06:26.016Z,27.40
2022-09-10T17:08:40.310Z,25.90
2022-09-10T17:10:53.658Z,30.00
2022-09-10T17:13:07.265Z,29.80
2022-09-10T17:15:20.681Z,33.20
2022-09-10T17:17:34.344Z,35.60
2022-09-10T17:19:48.080Z,34.60
2022-09-10T17:22:01.952Z,32.40
2022-09-10T17:24:16.743Z,31.10
2022-09-10T17:26:30.198Z,37.10
2022-09-10T17:28:44.230Z,37.80
2022-09-10T17:31:01.339Z,37.90
2022-09-10T17:33:14.668Z,40.60
2022-09-10T17:35:28.119Z,39.70
2022-09-10T17:37:41.987Z,44.30
2022-09-10T17:39:55.323Z,41.70
2022-09-10T17:42:08.767Z,44.70
2022-09-10T17:44:22.112Z,51.10
2022-09-10T17:46:36.652Z,50.50
2022-09-10T17:48:50.028Z,51.70
2022-09-10T17:51:03.494Z,50.70
2022-09-10T17:53:16.920Z,52.50
2022-09-10T17:55:33.522Z,50.30
2022-09-10T17:57:46.958Z,49.40
2022-09-10T18:00:00.175Z,53.20
2022-09-10T18:02:16.645Z,53.10
2022-09-10T18:04:29.998Z,48.50
2022-09-10T18:06:46.911Z,62.70
2022-09-10T18:09:03.997Z,54.70
2022-09-10T18:11:19.881Z,50.70
2022-09-10T18:13:33.264Z,50.90
2022-09-10T18:15:48.201Z,56.30
2022-09-10T18:18:02.646Z,54.20
2022-09-10T18:20:16.555Z,49.80
2022-09-10T18:22:30.439Z,52.60
2022-09-10T18:24:43.838Z,50.30
2022-09-10T18:26:58.549Z,54.70
2022-09-10T18:29:15.424Z,53.10
2022-09-10T18:31:30.540Z,51.90
2022-09-10T18:33:45.047Z,51.60
2022-09-10T18:35:58.222Z,58.20
2022-09-10T18:38:11.568Z,57.00
2022-09-10T18:40:25.250Z,54.90
2022-09-10T18:42:38.596Z,54.50
2022-09-10T18:44:51.832Z,52.90
2022-09-10T18:47:17.796Z,54.00
2022-09-10T18:49:40.248Z,62.40
2022-09-10T18:51:54.044Z,59.20
2022-09-10T18:54:07.927Z,58.60
2022-09-10T18:56:22.956Z,61.80
2022-09-10T18:58:37.177Z,60.50
2022-09-10T19:00:50.566Z,56.70
2022-09-10T19:03:03.956Z,62.60
2022-09-10T19:05:17.456Z,63.60
2022-09-10T19:07:30.895Z,59.90
2022-09-10T19:09:44.496Z,65.40
2022-09-10T19:11:58.706Z,68.00
2022-09-10T19:14:17.231Z,65.90
2022-09-10T19:16:31.771Z,67.20
2022-09-10T19:18:45.173Z,68.00
2022-09-10T19:20:58.631Z,69.20
2022-09-10T19:23:12.355Z,67.90
2022-09-10T19:25:25.953Z,72.50
2022-09-10T19:27:39.455Z,80.80
2022-09-10T19:29:53.132Z,78.60
2022-09-10T19:32:07.785Z,74.60
2022-09-10T19:34:22.713Z,76.80
2022-09-10T19:36:37.106Z,82.60
2022-09-10T19:38:50.564Z,78.90
2022-09-10T19:41:12.079Z,85.90
2022-09-10T19:43:25.450Z,85.50
2022-09-10T19:45:38.868Z,100.60
2022-09-10T19:47:52.206Z,94.40
2022-09-10T19:50:07.073Z,93.70
2022-09-10T19:52:20.496Z,93.90
2022-09-10T19:54:33.998Z,93.20
2022-09-10T19:56:48.043Z,90.80
2022-09-10T19:59:03.654Z,107.20
2022-09-10T20:01:18.305Z,117.10
2022-09-10T20:03:31.593Z,107.50
2022-09-10T20:05:45.716Z,91.00
2022-09-10T20:07:59.165Z,90.00
2022-09-10T20:10:13.510Z,82.40
2022-09-10T20:12:26.887Z,72.70
2022-09-10T20:14:41.086Z,71.30
2022-09-10T20:16:55.916Z,59.10
2022-09-10T20:19:12.087Z,51.90
2022-09-10T20:21:26.730Z,48.20
2022-09-10T20:23:42.246Z,42.30
2022-09-10T20:25:55.751Z,41.70
2022-09-10T20:28:09.337Z,47.10
2022-09-10T20:30:23.169Z,41.00
2022-09-10T20:32:36.392Z,44.60
2022-09-10T20:34:49.656Z,62.30
2022-09-10T20:37:03.004Z,64.60
2022-09-10T20:39:18.914Z,86.10
2022-09-10T20:41:33.059Z,67.10
2022-09-10T20:43:46.642Z,85.40
2022-09-10T20:46:00.189Z,70.70
2022-09-10T20:48:13.425Z,63.00
2022-09-10T20:50:27.916Z,56.20
2022-09-10T20:52:41.199Z,56.60
2022-09-10T20:54:54.509Z,53.70
2022-09-10T20:57:08.649Z,39.70
2022-09-10T20:59:26.959Z,43.90
2022-09-10T21:01:45.259Z,38.30
2022-09-10T21:04:01.258Z,48.30
2022-09-10T21:06:15.368Z,45.80
2022-09-10T21:08:28.819Z,47.60
2022-09-10T21:10:43.329Z,48.00
2022-09-10T21:12:56.710Z,52.40
2022-09-10T21:15:10.628Z,43.80
2022-09-10T21:17:23.963Z,37.30
2022-09-10T21:19:37.279Z,40.10
2022-09-10T21:21:51.831Z,41.00
2022-09-10T21:24:06.610Z,40.80
2022-09-10T21:26:21.919Z,42.20
2022-09-10T21:28:36.628Z,41.80
2022-09-10T21:30:50.364Z,42.50
2022-09-10T21:33:03.671Z,36.00
2022-09-10T21:35:17.612Z,43.80
2022-09-10T21:37:31.017Z,36.70
2022-09-10T21:39:44.985Z,38.30
2022-09-10T21:41:58.577Z,37.20
2022-09-10T21:44:15.354Z,42.60
2022-09-10T21:46:29.144Z,31.40
2022-09-10T21:48:43.376Z,39.20
2022-09-10T21:51:06.426Z,32.70
2022-09-10T21:53:20.893Z,40.10
2022-09-10T21:55:34.125Z,40.20
2022-09-10T21:57:47.752Z,42.00
2022-09-10T22:00:01.320Z,39.40
2022-09-10T22:02:15.176Z,31.10
2022-09-10T22:04:28.699Z,34.10
2022-09-10T22:06:42.037Z,34.40
2022-09-10T22:08:59.290Z,38.50
2022-09-10T22:11:15.576Z,33.80
2022-09-10T22:13:29.669Z,37.10
2022-09-10T22:15:46.548Z,69.40
2022-09-10T22:18:01.203Z,79.90
2022-09-10T22:20:15.563Z,71.60
2022-09-10T22:22:29.296Z,52.60
2022-09-10T22:24:42.661Z,70.10
2022-09-10T22:26:56.254Z,66.40
2022-09-10T22:29:09.640Z,69.20
2022-09-10T22:31:25.155Z,83.80
2022-09-10T22:33:39.299Z,67.20
2022-09-10T22:35:53.103Z,55.20
2022-09-10T22:38:06.373Z,74.70
2022-09-10T22:40:19.860Z,45.70
2022-09-10T22:42:33.394Z,57.50
2022-09-10T22:44:46.650Z,41.70
2022-09-10T22:47:01.046Z,37.30
2022-09-10T22:49:16.633Z,36.40
2022-09-10T22:51:31.196Z,29.10
2022-09-10T22:53:45.471Z,36.10
2022-09-10T22:55:59.620Z,32.50
2022-09-10T22:58:13.611Z,35.90
2022-09-10T23:00:27.819Z,29.50
2022-09-10T23:02:41.079Z,31.10
2022-09-10T23:04:54.409Z,28.60
2022-09-10T23:07:08.149Z,36.20
2022-09-10T23:09:21.917Z,39.40
2022-09-10T23:11:36.389Z,47.70
2022-09-10T23:13:51.231Z,72.50
2022-09-10T23:16:04.620Z,89.30
2022-09-10T23:18:18.203Z,85.50
2022-09-10T23:20:32.197Z,85.40
2022-09-10T23:22:45.540Z,83.70
2022-09-10T23:24:59.451Z,82.10
2022-09-10T23:27:13.028Z,76.90
2022-09-10T23:29:26.487Z,85.30
2022-09-10T23:31:42.003Z,63.40
2022-09-10T23:34:00.525Z,43.70
2022-09-10T23:36:14.769Z,33.80
2022-09-10T23:38:28.851Z,44.20
2022-09-10T23:40:42.388Z,46.60
2022-09-10T23:42:55.717Z,44.90
2022-09-10T23:45:09.772Z,43.00
2022-09-10T23:47:22.984Z,53.20
2022-09-10T23:49:36.721Z,53.30
2022-09-10T23:51:50.195Z,60.90
2022-09-10T23:54:03.941Z,55.40
2022-09-10T23:56:18.351Z,51.30
2022-09-10T23:58:32.040Z,49.40
